Terminal Aerodrome Forecast
Issued by NWS

Home | Current Version | Previous Version | Text Only | Print | Product List | Glossary On
Versions: 1 2 3 4 5 6 7 8 9 10 11 12 13 14 15 16
000
FTUS43 KMQT 291124
TAFCMX
TAF
KCMX 291124Z 2912/3012 11010KT 1/4SM FG VCSH OVC001
      TEMPO 2912/2916 1 1/2SM -SHRA OVC003
     FM291600 29012KT 1SM BR VCSH OVC003
     FM291800 28012KT 3SM BR VCSH SCT003 BKN008
     FM300000 30008KT 2SM BR VCSH OVC003
     FM300300 32007KT 1SM BR VCSH BKN003 WS020/02035KT
     FM300800 33006KT 1SM BR BKN003=

USA.gov is the U.S. government's official web portal to all federal, state and local government web resources and services.